createdAt,value
2017-04-01T00:00:59.950Z,1009.59
2017-04-01T00:01:59.946Z,1009.47
2017-04-01T00:02:59.990Z,1009.53
2017-04-01T00:04:00.111Z,1009.48
2017-04-01T00:05:00.055Z,1009.44
2017-04-01T00:06:00.088Z,1009.45
2017-04-01T00:07:00.147Z,1009.44
2017-04-01T00:08:00.153Z,1009.44
2017-04-01T00:09:00.196Z,1009.45
2017-04-01T00:10:00.243Z,1009.43
2017-04-01T00:11:00.285Z,1009.42
2017-04-01T00:12:00.299Z,1009.41
2017-04-01T00:13:00.329Z,1009.44
2017-04-01T00:14:00.348Z,1009.48
2017-04-01T00:15:00.383Z,1009.46
2017-04-01T00:16:00.416Z,1009.49
2017-04-01T00:17:00.449Z,1009.44
2017-04-01T00:18:00.521Z,1009.45
2017-04-01T00:19:00.535Z,1009.42
2017-04-01T00:20:00.547Z,1009.46
2017-04-01T00:21:00.577Z,1009.39
2017-04-01T00:22:00.631Z,1009.43
2017-04-01T00:23:00.660Z,1009.4
2017-04-01T00:24:00.676Z,1009.45
2017-04-01T00:25:00.728Z,1009.44
2017-04-01T00:26:00.736Z,1009.39
2017-04-01T00:27:00.775Z,1009.44
2017-04-01T00:28:00.828Z,1009.42
2017-04-01T00:29:00.841Z,1009.39
2017-04-01T00:30:00.863Z,1009.35
2017-04-01T00:31:00.922Z,1009.39
2017-04-01T00:32:00.933Z,1009.35
2017-04-01T00:33:00.964Z,1009.32
2017-04-01T00:34:00.992Z,1009.3
2017-04-01T00:35:01.030Z,1009.31
2017-04-01T00:36:01.043Z,1009.3
2017-04-01T00:37:01.115Z,1009.34
2017-04-01T00:38:01.126Z,1009.36
2017-04-01T00:39:01.155Z,1009.32
2017-04-01T00:40:01.192Z,1009.3
2017-04-01T00:41:01.229Z,1009.26
2017-04-01T00:42:01.252Z,1009.27
2017-04-01T00:43:01.288Z,1009.3
2017-04-01T00:44:01.343Z,1009.25
2017-04-01T00:45:01.346Z,1009.24
2017-04-01T00:46:01.385Z,1009.25
2017-04-01T00:47:01.417Z,1009.3
2017-04-01T00:48:01.446Z,1009.25
2017-04-01T00:49:01.480Z,1009.28
2017-04-01T00:50:01.540Z,1009.31
2017-04-01T00:51:01.568Z,1009.29
2017-04-01T00:52:01.599Z,1009.32
2017-04-01T00:53:01.627Z,1009.38
2017-04-01T00:54:01.661Z,1009.27
2017-04-01T00:55:01.695Z,1009.31
2017-04-01T00:56:01.701Z,1009.29
2017-04-01T00:57:01.760Z,1009.31
2017-04-01T00:58:01.758Z,1009.29
2017-04-01T00:59:01.798Z,1009.27
2017-04-01T01:00:01.829Z,1009.2
2017-04-01T01:01:01.860Z,1009.23
2017-04-01T01:02:01.892Z,1009.27
2017-04-01T01:03:01.952Z,1009.26
2017-04-01T01:04:01.957Z,1009.23
2017-04-01T01:05:01.996Z,1009.17
2017-04-01T01:06:02.020Z,1009.21
2017-04-01T01:07:02.053Z,1009.21
2017-04-01T01:08:02.086Z,1009.24
2017-04-01T01:09:02.139Z,1009.21
2017-04-01T01:10:02.154Z,1009.24
2017-04-01T01:11:02.203Z,1009.23
2017-04-01T01:12:02.242Z,1009.2
2017-04-01T01:13:02.271Z,1009.21
2017-04-01T01:14:02.276Z,1009.19
2017-04-01T01:15:02.298Z,1009.2
2017-04-01T01:16:02.361Z,1009.23
2017-04-01T01:17:02.396Z,1009.18
2017-04-01T01:18:02.404Z,1009.22
2017-04-01T01:19:02.434Z,1009.23
2017-04-01T01:20:02.460Z,1009.18
2017-04-01T01:21:02.501Z,1009.15
2017-04-01T01:22:02.555Z,1009.2
2017-04-01T01:23:02.555Z,1009.16
2017-04-01T01:24:02.594Z,1009.17
2017-04-01T01:25:02.613Z,1009.16
2017-04-01T01:26:02.656Z,1009.18
2017-04-01T01:27:02.693Z,1009.19
2017-04-01T01:28:02.721Z,1009.19
2017-04-01T01:29:02.755Z,1009.14
2017-04-01T01:30:02.789Z,1009.17
2017-04-01T01:31:02.815Z,1009.19
2017-04-01T01:32:02.849Z,1009.19
2017-04-01T01:33:02.882Z,1009.15
2017-04-01T01:34:02.935Z,1009.11
2017-04-01T01:35:02.943Z,1009.13
2017-04-01T01:36:03.012Z,1009.16
2017-04-01T01:37:03.028Z,1009.09
2017-04-01T01:38:03.041Z,1009.12
2017-04-01T01:39:03.074Z,1009.11
2017-04-01T01:40:03.100Z,1009.11
2017-04-01T01:41:03.140Z,1009.07
2017-04-01T01:42:03.165Z,1009.1
2017-04-01T01:43:03.188Z,1009.1
2017-04-01T01:44:03.226Z,1009.07
2017-04-01T01:45:03.239Z,1009.07
2017-04-01T01:46:03.291Z,1009.03
2017-04-01T01:47:03.322Z,1009.02
2017-04-01T01:48:03.356Z,1008.99
2017-04-01T01:49:03.386Z,1008.99
2017-04-01T01:50:03.425Z,1008.96
2017-04-01T01:51:03.450Z,1008.97
2017-04-01T01:52:03.480Z,1008.97
2017-04-01T01:53:03.510Z,1008.95
2017-04-01T01:54:03.546Z,1008.95
2017-04-01T01:55:03.578Z,1009
2017-04-01T01:56:03.608Z,1008.99
2017-04-01T01:57:03.649Z,1008.98
2017-04-01T01:58:03.712Z,1008.94
2017-04-01T01:59:03.685Z,1008.98
2017-04-01T02:00:03.766Z,1009
2017-04-01T02:01:03.754Z,1008.96
2017-04-01T02:02:03.807Z,1009.01
2017-04-01T02:03:03.826Z,1008.98
2017-04-01T02:04:03.858Z,1009.04
2017-04-01T02:05:03.887Z,1008.97
2017-04-01T02:06:03.953Z,1009.02
2017-04-01T02:07:03.950Z,1008.95
2017-04-01T02:08:03.981Z,1009
2017-04-01T02:09:04.029Z,1009.03
2017-04-01T02:10:04.089Z,1009.02
2017-04-01T02:11:04.077Z,1008.97
2017-04-01T02:12:04.107Z,1008.98
2017-04-01T02:13:04.162Z,1009.03
2017-04-01T02:14:04.192Z,1008.99
2017-04-01T02:15:04.201Z,1009.01
2017-04-01T02:16:04.260Z,1009
2017-04-01T02:17:04.257Z,1009.03
2017-04-01T02:18:04.283Z,1008.98
2017-04-01T02:19:04.352Z,1009.02
2017-04-01T02:20:04.365Z,1009.02
2017-04-01T02:21:04.391Z,1009.03
2017-04-01T02:22:04.414Z,1009.01
2017-04-01T02:23:04.452Z,1009.03
2017-04-01T02:24:04.483Z,1008.98
2017-04-01T02:25:04.497Z,1009.01
2017-04-01T02:26:36.520Z,1009.07
2017-04-01T02:27:17.253Z,1009.05
2017-04-01T02:28:17.284Z,1009.07
2017-04-01T02:29:17.316Z,1009.08
2017-04-01T02:30:17.351Z,1009.05
2017-04-01T02:31:17.382Z,1009.08
2017-04-01T02:32:17.412Z,1009.06
2017-04-01T02:33:17.443Z,1009.07
2017-04-01T02:34:17.458Z,1009.08
2017-04-01T02:35:17.603Z,1009.05
2017-04-01T02:36:17.555Z,1009.06
2017-04-01T02:37:17.563Z,1009.03
2017-04-01T02:38:17.598Z,1009.07
2017-04-01T02:39:17.628Z,1009.06
2017-04-01T02:40:17.664Z,1009.04
2017-04-01T02:41:17.688Z,1009.01
2017-04-01T02:42:17.725Z,1009.03
2017-04-01T02:43:17.792Z,1009.02
2017-04-01T02:44:17.786Z,1008.94
2017-04-01T02:45:17.818Z,1009.02
2017-04-01T02:46:17.847Z,1008.99
2017-04-01T02:47:17.878Z,1009
2017-04-01T02:48:17.911Z,1008.93
2017-04-01T02:49:17.942Z,1008.95
2017-04-01T02:50:17.960Z,1008.96
2017-04-01T02:51:17.987Z,1008.96
2017-04-01T02:52:18.035Z,1008.99
2017-04-01T02:53:18.065Z,1009.01
2017-04-01T02:54:18.099Z,1009.11
2017-04-01T02:55:18.126Z,1009.01
2017-04-01T02:56:18.144Z,1008.99
2017-04-01T02:57:18.190Z,1009
2017-04-01T02:58:18.220Z,1008.99
2017-04-01T02:59:18.254Z,1009.02
2017-04-01T03:00:18.280Z,1009.03
2017-04-01T03:01:18.313Z,1009.03
2017-04-01T03:02:18.347Z,1009.03
2017-04-01T03:03:18.358Z,1009.02
2017-04-01T03:04:18.408Z,1009.02
2017-04-01T03:05:18.435Z,1009.06
2017-04-01T03:06:18.466Z,1009.1
2017-04-01T03:07:18.498Z,1009.04
2017-04-01T03:08:18.531Z,1009.04
2017-04-01T03:09:18.559Z,1009.04
2017-04-01T03:10:18.596Z,1009.07
2017-04-01T03:11:18.626Z,1009.03
2017-04-01T03:12:18.657Z,1009.01
2017-04-01T03:13:18.686Z,1009.03
2017-04-01T03:14:18.716Z,1009.02
2017-04-01T03:15:18.752Z,1009.01
2017-04-01T03:16:18.778Z,1008.98
2017-04-01T03:17:18.811Z,1009
2017-04-01T03:18:18.838Z,1009.02
2017-04-01T03:19:18.872Z,1009
2017-04-01T03:20:18.900Z,1009.01
2017-04-01T03:21:18.937Z,1009
2017-04-01T03:22:18.965Z,1009.01
2017-04-01T03:23:19.000Z,1008.99
2017-04-01T03:24:19.028Z,1008.99
2017-04-01T03:25:19.063Z,1008.99
2017-04-01T03:26:19.187Z,1009.03
2017-04-01T03:27:19.120Z,1008.99
2017-04-01T03:28:19.152Z,1009
2017-04-01T03:29:19.183Z,1009.04
2017-04-01T03:30:19.198Z,1008.99
2017-04-01T03:31:19.245Z,1008.99
2017-04-01T03:32:19.258Z,1009
2017-04-01T03:33:19.307Z,1009.05
2017-04-01T03:34:19.334Z,1009
2017-04-01T03:35:19.346Z,1008.99
2017-04-01T03:36:19.399Z,1008.99
2017-04-01T03:37:19.431Z,1008.99
2017-04-01T03:38:19.464Z,1009
2017-04-01T03:39:19.493Z,1009.01
2017-04-01T03:40:19.525Z,1009.01
2017-04-01T03:41:19.554Z,1009.03
2017-04-01T03:42:19.565Z,1008.98
2017-04-01T03:43:19.614Z,1009.03
2017-04-01T03:44:19.649Z,1009.05
2017-04-01T03:45:19.661Z,1009.04
2017-04-01T03:46:19.746Z,1009.07
2017-04-01T03:47:19.743Z,1009.08
2017-04-01T03:48:19.765Z,1009.02
2017-04-01T03:49:19.797Z,1009.03
2017-04-01T03:50:19.833Z,1009.01
2017-04-01T03:51:19.866Z,1009.02
2017-04-01T03:52:19.892Z,1009.11
2017-04-01T03:53:19.925Z,1009.07
2017-04-01T03:54:19.938Z,1009.1
2017-04-01T03:55:19.985Z,1009.09
2017-04-01T03:56:20.011Z,1009.08
2017-04-01T03:57:20.048Z,1009.11
2017-04-01T03:58:20.061Z,1009.07
2017-04-01T03:59:20.108Z,1009.05
2017-04-01T04:00:20.124Z,1009.08
2017-04-01T04:01:20.156Z,1009.14
2017-04-01T04:02:20.183Z,1009.13
2017-04-01T04:03:20.214Z,1009.15
2017-04-01T04:04:20.256Z,1009.14
2017-04-01T04:05:20.280Z,1009.15
2017-04-01T04:06:20.310Z,1009.23
2017-04-01T04:07:20.324Z,1009.16
2017-04-01T04:08:20.371Z,1009.14
2017-04-01T04:09:20.399Z,1009.21
2017-04-01T04:10:20.781Z,1009.12
2017-04-01T04:11:20.459Z,1009.16
2017-04-01T04:12:20.490Z,1009.14
2017-04-01T04:13:20.523Z,1009.12
2017-04-01T04:14:20.552Z,1009.11
2017-04-01T04:15:20.586Z,1009.13
2017-04-01T04:16:20.613Z,1009.17
2017-04-01T04:17:20.646Z,1009.18
2017-04-01T04:18:20.674Z,1009.15
2017-04-01T04:19:20.734Z,1009.17
2017-04-01T04:20:20.734Z,1009.2
2017-04-01T04:21:20.751Z,1009.2
2017-04-01T04:22:20.796Z,1009.2
2017-04-01T04:23:20.826Z,1009.18
2017-04-01T04:24:20.856Z,1009.22
2017-04-01T04:25:20.890Z,1009.17
2017-04-01T04:26:20.920Z,1009.16
2017-04-01T04:27:20.951Z,1009.22
2017-04-01T04:28:20.980Z,1009.17
2017-04-01T04:29:21.010Z,1009.15
2017-04-01T04:30:21.043Z,1009.14
2017-04-01T04:31:21.070Z,1009.17
2017-04-01T04:32:21.103Z,1009.18
2017-04-01T04:33:21.134Z,1009.21
2017-04-01T04:34:21.164Z,1009.19
2017-04-01T04:35:21.194Z,1009.21
2017-04-01T04:36:21.222Z,1009.24
2017-04-01T04:37:21.253Z,1009.21
2017-04-01T04:38:21.290Z,1009.22
2017-04-01T04:39:21.317Z,1009.23
2017-04-01T04:40:21.343Z,1009.27
2017-04-01T04:41:21.362Z,1009.21
2017-04-01T04:42:21.407Z,1009.23
2017-04-01T04:43:21.437Z,1009.23
2017-04-01T04:44:21.470Z,1009.22
2017-04-01T04:45:21.496Z,1009.23
2017-04-01T04:46:21.528Z,1009.24
2017-04-01T04:47:21.564Z,1009.27
2017-04-01T04:48:21.587Z,1009.29
2017-04-01T04:49:21.618Z,1009.29
2017-04-01T04:50:21.945Z,1009.27
2017-04-01T04:51:21.681Z,1009.27
2017-04-01T04:52:21.710Z,1009.33
2017-04-01T04:53:21.735Z,1009.29
2017-04-01T04:54:21.765Z,1009.3
2017-04-01T04:55:21.801Z,1009.36
2017-04-01T04:56:21.831Z,1009.33
2017-04-01T04:57:21.866Z,1009.34
2017-04-01T04:58:21.892Z,1009.35
2017-04-01T04:59:21.921Z,1009.41
2017-04-01T05:00:21.958Z,1009.4
2017-04-01T05:01:21.986Z,1009.41
2017-04-01T05:02:22.015Z,1009.44
2017-04-01T05:03:22.043Z,1009.43
2017-04-01T05:04:22.062Z,1009.43
2017-04-01T05:05:22.106Z,1009.44
2017-04-01T05:06:22.160Z,1009.44
2017-04-01T05:07:22.167Z,1009.42
2017-04-01T05:08:22.198Z,1009.45
2017-04-01T05:09:22.226Z,1009.45
2017-04-01T05:10:22.407Z,1009.46
2017-04-01T05:11:22.290Z,1009.51
2017-04-01T05:12:22.319Z,1009.51
2017-04-01T05:13:22.352Z,1009.45
2017-04-01T05:14:22.381Z,1009.52
2017-04-01T05:15:22.414Z,1009.49
2017-04-01T05:16:22.440Z,1009.48
2017-04-01T05:17:22.472Z,1009.49
2017-04-01T05:18:22.508Z,1009.44
2017-04-01T05:19:22.535Z,1009.49
2017-04-01T05:20:22.562Z,1009.44
2017-04-01T05:21:22.588Z,1009.46
2017-04-01T05:22:22.625Z,1009.48
2017-04-01T05:23:22.648Z,1009.44
2017-04-01T05:24:22.686Z,1009.47
2017-04-01T05:25:22.718Z,1009.47
2017-04-01T05:26:22.747Z,1009.51
2017-04-01T05:27:22.777Z,1009.5
2017-04-01T05:28:22.818Z,1009.47
2017-04-01T05:29:22.839Z,1009.47
2017-04-01T05:30:22.870Z,1009.44
2017-04-01T05:31:22.903Z,1009.46
2017-04-01T05:32:22.929Z,1009.49
2017-04-01T05:33:22.963Z,1009.52
2017-04-01T05:34:22.996Z,1009.45
2017-04-01T05:35:23.024Z,1009.49
2017-04-01T05:36:23.056Z,1009.43
2017-04-01T05:37:23.085Z,1009.51
2017-04-01T05:38:23.116Z,1009.48
2017-04-01T05:39:23.147Z,1009.53
2017-04-01T05:40:23.393Z,1009.49
2017-04-01T05:41:23.210Z,1009.48
2017-04-01T05:42:23.238Z,1009.49
2017-04-01T05:43:23.274Z,1009.49
2017-04-01T05:44:23.302Z,1009.48
2017-04-01T05:45:23.333Z,1009.51
2017-04-01T05:46:23.399Z,1009.53
2017-04-01T05:47:23.393Z,1009.56
2017-04-01T05:48:23.424Z,1009.6
2017-04-01T05:49:23.456Z,1009.53
2017-04-01T05:50:23.494Z,1009.52
2017-04-01T05:51:23.721Z,1009.56
2017-04-01T05:52:23.551Z,1009.62
2017-04-01T05:53:23.583Z,1009.65
2017-04-01T05:54:23.611Z,1009.65
2017-04-01T05:55:23.645Z,1009.63
2017-04-01T05:56:23.677Z,1009.61
2017-04-01T05:57:23.710Z,1009.6
2017-04-01T05:58:23.742Z,1009.63
2017-04-01T05:59:23.760Z,1009.59
2017-04-01T06:00:23.796Z,1009.61
2017-04-01T06:01:23.839Z,1009.66
2017-04-01T06:02:23.871Z,1009.7
2017-04-01T06:03:23.892Z,1009.69
2017-04-01T06:04:23.935Z,1009.71
2017-04-01T06:05:24.040Z,1009.63
2017-04-01T06:06:24.016Z,1009.63
2017-04-01T06:07:24.034Z,1009.7
2017-04-01T06:08:24.109Z,1009.62
2017-04-01T06:09:24.109Z,1009.63
2017-04-01T06:10:24.142Z,1009.59
2017-04-01T06:11:24.176Z,1009.56
2017-04-01T06:12:24.203Z,1009.57
2017-04-01T06:13:24.236Z,1009.52
2017-04-01T06:14:24.270Z,1009.58
2017-04-01T06:15:24.404Z,1009.58
2017-04-01T06:16:24.368Z,1009.59
2017-04-01T06:17:24.414Z,1009.55
2017-04-01T06:18:24.405Z,1009.63
2017-04-01T06:19:24.441Z,1009.67
2017-04-01T06:20:24.511Z,1009.7
2017-04-01T06:21:24.507Z,1009.68
2017-04-01T06:22:24.540Z,1009.72
2017-04-01T06:23:24.775Z,1009.73
2017-04-01T06:24:24.613Z,1009.74
2017-04-01T06:25:24.639Z,1009.74
2017-04-01T06:26:24.675Z,1009.77
2017-04-01T06:27:24.708Z,1009.75
2017-04-01T06:28:24.749Z,1009.82
2017-04-01T06:29:24.778Z,1010.01
2017-04-01T06:30:24.834Z,1010.28
2017-04-01T06:31:24.848Z,1010.64
2017-04-01T06:32:24.885Z,1010.76
2017-04-01T06:33:24.926Z,1010.84
2017-04-01T06:34:24.955Z,1010.68
2017-04-01T06:35:25.088Z,1010.61
2017-04-01T06:36:25.023Z,1010.63
2017-04-01T06:37:25.057Z,1010.75
2017-04-01T06:38:25.093Z,1010.73
2017-04-01T06:39:25.130Z,1010.18
2017-04-01T06:40:25.311Z,1010.52
2017-04-01T06:41:25.202Z,1010.84
2017-04-01T06:42:25.235Z,1010.85
2017-04-01T06:43:25.272Z,1010.9
2017-04-01T06:44:25.310Z,1010.76
2017-04-01T06:45:25.348Z,1010.69
2017-04-01T06:46:25.381Z,1010.72
2017-04-01T06:47:26.835Z,1010.63
2017-04-01T06:48:25.458Z,1010.84
2017-04-01T06:49:25.491Z,1010.92
2017-04-01T06:50:25.530Z,1011.05
2017-04-01T06:51:25.568Z,1011.22
2017-04-01T06:52:25.610Z,1011.18
2017-04-01T06:53:25.647Z,1011.11
2017-04-01T06:54:25.703Z,1011.17
2017-04-01T06:55:25.746Z,1011.18
2017-04-01T06:56:25.757Z,1011.16
2017-04-01T06:57:25.779Z,1011.18
2017-04-01T06:58:25.819Z,1011.02
2017-04-01T06:59:25.871Z,1011.2
2017-04-01T07:00:26.005Z,1011.13
2017-04-01T07:01:25.952Z,1011.2
2017-04-01T07:02:25.985Z,1011.42
2017-04-01T07:03:26.023Z,1011.4
2017-04-01T07:04:26.047Z,1011.37
2017-04-01T07:05:26.100Z,1011.4
2017-04-01T07:06:26.138Z,1011.36
2017-04-01T07:07:26.179Z,1011.37
2017-04-01T07:08:26.217Z,1011.19
2017-04-01T07:09:26.259Z,1011.23
2017-04-01T07:10:26.294Z,1011.23
2017-04-01T07:11:26.335Z,1011.27
2017-04-01T07:12:26.375Z,1011.31
2017-04-01T07:13:26.411Z,1011.34
2017-04-01T07:14:26.452Z,1011.22
2017-04-01T07:15:26.494Z,1011.3
2017-04-01T07:16:26.520Z,1011.25
2017-04-01T07:17:26.559Z,1011.19
2017-04-01T07:18:26.610Z,1011.28
2017-04-01T07:19:26.652Z,1011.21
2017-04-01T07:20:26.690Z,1011.3
2017-04-01T07:21:26.733Z,1011.33
2017-04-01T07:22:26.759Z,1011.29
2017-04-01T07:23:26.812Z,1011.2
2017-04-01T07:24:26.852Z,1011.37
2017-04-01T07:25:27.144Z,1011.3
2017-04-01T07:26:26.932Z,1011.23
2017-04-01T07:27:26.975Z,1011.26
2017-04-01T07:28:27.014Z,1011.3
2017-04-01T07:29:27.058Z,1011.4
2017-04-01T07:30:27.097Z,1011.34
2017-04-01T07:31:27.144Z,1011.25
2017-04-01T07:32:27.177Z,1011.22
2017-04-01T07:33:27.217Z,1011.18
2017-04-01T07:34:27.266Z,1011.17
2017-04-01T07:35:27.302Z,1011.11
2017-04-01T07:36:27.340Z,1011.03
2017-04-01T07:37:27.386Z,1010.94
2017-04-01T07:38:27.423Z,1010.98
2017-04-01T07:39:27.472Z,1010.94
2017-04-01T07:40:27.509Z,1010.85
2017-04-01T07:41:27.548Z,1010.84
2017-04-01T07:42:27.587Z,1010.77
2017-04-01T07:43:27.633Z,1010.75
2017-04-01T07:44:27.676Z,1010.66
2017-04-01T07:45:27.708Z,1010.64
2017-04-01T07:46:27.757Z,1010.62
2017-04-01T07:47:27.800Z,1010.65
2017-04-01T07:48:27.845Z,1010.6
2017-04-01T07:49:27.888Z,1010.61
2017-04-01T07:50:27.925Z,1010.57
2017-04-01T07:51:27.970Z,1010.51
2017-04-01T07:52:28.010Z,1010.4
2017-04-01T07:53:28.053Z,1010.32
2017-04-01T07:54:28.080Z,1010.31
2017-04-01T07:55:28.139Z,1010.33
2017-04-01T07:56:28.183Z,1010.28
2017-04-01T07:57:28.223Z,1010.25
2017-04-01T07:58:28.282Z,1010.26
2017-04-01T07:59:28.312Z,1010.3
2017-04-01T08:00:28.354Z,1010.29
2017-04-01T08:01:28.396Z,1010.31
2017-04-01T08:02:28.441Z,1010.3
2017-04-01T08:03:28.483Z,1010.3
2017-04-01T08:04:28.553Z,1010.22
2017-04-01T08:05:28.591Z,1010.19
2017-04-01T08:06:28.616Z,1010.19
2017-04-01T08:07:28.658Z,1010.26
2017-04-01T08:08:28.702Z,1010.28
2017-04-01T08:09:28.755Z,1010.27
2017-04-01T08:10:28.790Z,1010.07
2017-04-01T08:11:28.831Z,1010
2017-04-01T08:12:28.863Z,1009.99
2017-04-01T08:13:28.932Z,1010.05
2017-04-01T08:14:28.963Z,1010.04
2017-04-01T08:15:29.007Z,1010.05
2017-04-01T08:16:29.052Z,1010.12
2017-04-01T08:17:29.102Z,1010.08
2017-04-01T08:18:29.136Z,1010.02
2017-04-01T08:19:29.187Z,1010.07
2017-04-01T08:20:29.229Z,1010.02
2017-04-01T08:21:29.270Z,1009.98
2017-04-01T08:22:29.325Z,1009.92
2017-04-01T08:23:29.378Z,1009.9
2017-04-01T08:24:29.420Z,1009.9
2017-04-01T08:25:29.656Z,1009.84
2017-04-01T08:26:29.496Z,1009.9
2017-04-01T08:27:29.539Z,1009.85
2017-04-01T08:28:29.585Z,1009.81
2017-04-01T08:29:29.629Z,1009.78
2017-04-01T08:30:29.921Z,1009.77
2017-04-01T08:31:29.719Z,1009.76
2017-04-01T08:32:29.764Z,1009.81
2017-04-01T08:33:29.808Z,1009.76
2017-04-01T08:34:29.859Z,1009.8
2017-04-01T08:35:29.901Z,1009.76
2017-04-01T08:36:29.959Z,1009.78
2017-04-01T08:37:29.989Z,1009.78
2017-04-01T08:38:30.042Z,1009.77
2017-04-01T08:39:30.067Z,1009.8
2017-04-01T08:40:30.126Z,1009.82
2017-04-01T08:41:30.174Z,1009.8
2017-04-01T08:42:30.212Z,1009.78
2017-04-01T08:43:30.265Z,1009.81
2017-04-01T08:44:30.313Z,1009.81
2017-04-01T08:45:30.362Z,1009.83
2017-04-01T08:46:30.401Z,1009.77
2017-04-01T08:47:30.449Z,1009.8
2017-04-01T08:48:30.495Z,1009.77
2017-04-01T08:49:30.537Z,1009.77
2017-04-01T08:50:30.582Z,1009.82
2017-04-01T08:51:30.632Z,1009.83
2017-04-01T08:52:30.677Z,1009.78
2017-04-01T08:53:30.712Z,1009.72
2017-04-01T08:54:30.773Z,1009.76
2017-04-01T08:55:30.815Z,1009.8
2017-04-01T08:56:30.865Z,1009.79
2017-04-01T08:57:30.911Z,1009.86
2017-04-01T08:58:30.957Z,1009.83
2017-04-01T08:59:31.010Z,1009.89
2017-04-01T09:00:31.042Z,1009.84
2017-04-01T09:01:31.101Z,1009.85
2017-04-01T09:02:31.147Z,1009.81
2017-04-01T09:03:31.193Z,1009.87
2017-04-01T09:04:31.245Z,1009.94
2017-04-01T09:05:31.287Z,1009.96
2017-04-01T09:06:31.336Z,1009.95
2017-04-01T09:07:31.383Z,1009.97
2017-04-01T09:08:31.429Z,1010.05
2017-04-01T09:09:31.489Z,1010.09
2017-04-01T09:10:31.525Z,1010.12
2017-04-01T09:11:31.575Z,1010.09
2017-04-01T09:12:31.620Z,1010.13
2017-04-01T09:13:31.670Z,1010.11
2017-04-01T09:14:31.714Z,1010.13
2017-04-01T09:15:31.768Z,1010.17
2017-04-01T09:16:31.822Z,1010.15
2017-04-01T09:17:31.859Z,1010.14
2017-04-01T09:18:31.907Z,1010.1
2017-04-01T09:19:31.957Z,1010.13
2017-04-01T09:20:32.008Z,1010.09
2017-04-01T09:21:32.052Z,1010.1
2017-04-01T09:22:32.100Z,1010.01
2017-04-01T09:23:32.150Z,1010.03
2017-04-01T09:24:32.214Z,1010.09
2017-04-01T09:25:32.246Z,1010.13
2017-04-01T09:26:32.298Z,1010.06
2017-04-01T09:27:32.350Z,1010.11
2017-04-01T09:28:32.393Z,1010.15
2017-04-01T09:29:32.447Z,1010.06
2017-04-01T09:30:32.492Z,1010.14
2017-04-01T09:31:32.540Z,1010.09
2017-04-01T09:32:32.590Z,1010.08
2017-04-01T09:33:32.636Z,1010.11
2017-04-01T09:34:32.686Z,1010.09
2017-04-01T09:35:32.734Z,1010.19
2017-04-01T09:36:32.784Z,1010.2
2017-04-01T09:37:32.835Z,1010.2
2017-04-01T09:38:32.884Z,1010.19
2017-04-01T09:39:32.931Z,1010.23
2017-04-01T09:40:32.978Z,1010.24
2017-04-01T09:41:33.031Z,1010.34
2017-04-01T09:42:33.078Z,1010.31
2017-04-01T09:43:33.129Z,1010.31
2017-04-01T09:44:33.176Z,1010.3
2017-04-01T09:45:33.226Z,1010.37
2017-04-01T09:46:33.274Z,1010.43
2017-04-01T09:47:33.311Z,1010.46
2017-04-01T09:48:33.369Z,1010.42
2017-04-01T09:49:33.425Z,1010.49
2017-04-01T09:50:33.459Z,1010.48
2017-04-01T09:51:33.518Z,1010.43
2017-04-01T09:52:33.562Z,1010.45
2017-04-01T09:53:33.621Z,1010.52
2017-04-01T09:54:33.664Z,1010.5
2017-04-01T09:55:33.716Z,1010.53
2017-04-01T09:56:33.764Z,1010.49
2017-04-01T09:57:33.812Z,1010.51
2017-04-01T09:58:33.862Z,1010.5
2017-04-01T09:59:33.906Z,1010.42
2017-04-01T10:00:33.960Z,1010.51
2017-04-01T10:01:34.004Z,1010.54
2017-04-01T10:02:34.046Z,1010.37
2017-04-01T10:03:34.102Z,1010.35
2017-04-01T10:04:34.150Z,1010.3
2017-04-01T10:05:34.196Z,1010.59
2017-04-01T10:06:34.245Z,1010.61
2017-04-01T10:07:34.290Z,1010.66
2017-04-01T10:08:34.340Z,1010.6
2017-04-01T10:09:34.386Z,1010.56
2017-04-01T10:10:34.435Z,1010.62
2017-04-01T10:11:34.483Z,1010.65
2017-04-01T10:12:34.529Z,1010.66
2017-04-01T10:13:34.582Z,1010.6
2017-04-01T10:14:34.624Z,1010.83
2017-04-01T10:15:34.669Z,1010.68
2017-04-01T10:16:34.716Z,1010.67
2017-04-01T10:17:34.758Z,1010.77
2017-04-01T10:18:34.813Z,1010.86
2017-04-01T10:19:34.856Z,1011
2017-04-01T10:20:34.902Z,1011.09
2017-04-01T10:21:34.988Z,1011.15
2017-04-01T10:22:34.996Z,1011.12
2017-04-01T10:23:35.045Z,1011.18
2017-04-01T10:24:35.096Z,1011.28
2017-04-01T10:25:35.137Z,1011.12
2017-04-01T10:26:35.201Z,1011.2
2017-04-01T10:27:35.227Z,1011.39
2017-04-01T10:28:35.273Z,1011.59
2017-04-01T10:29:35.319Z,1011.69
2017-04-01T10:30:35.363Z,1011.68
2017-04-01T10:31:35.412Z,1011.5
2017-04-01T10:32:35.457Z,1011.36
2017-04-01T10:33:35.502Z,1011.48
2017-04-01T10:34:35.546Z,1011.43
2017-04-01T10:35:35.593Z,1011.32
2017-04-01T10:36:35.636Z,1011.58
2017-04-01T10:37:35.681Z,1011.74
2017-04-01T10:38:35.725Z,1012.09
2017-04-01T10:39:35.769Z,1012.16
2017-04-01T10:40:35.817Z,1012.09
2017-04-01T10:41:35.857Z,1011.88
2017-04-01T10:42:35.902Z,1011.98
2017-04-01T10:43:35.950Z,1012.52
2017-04-01T10:44:35.992Z,1012.76
2017-04-01T10:45:36.036Z,1012.99
2017-04-01T10:46:36.081Z,1013.14
2017-04-01T10:47:36.122Z,1013.4
2017-04-01T10:48:36.168Z,1013.51
2017-04-01T10:49:36.209Z,1013.39
2017-04-01T10:50:36.256Z,1013.35
2017-04-01T10:51:36.297Z,1013.31
2017-04-01T10:52:36.339Z,1013.44
2017-04-01T10:53:36.380Z,1013.41
2017-04-01T10:54:36.426Z,1013.09
2017-04-01T10:55:36.463Z,1012.83
2017-04-01T10:56:36.507Z,1011.87
2017-04-01T10:57:36.557Z,1009.78
2017-04-01T10:58:36.598Z,1009.35
2017-04-01T10:59:36.639Z,1009.28
2017-04-01T11:00:36.672Z,1009.31
2017-04-01T11:01:36.723Z,1009.26
2017-04-01T11:02:36.769Z,1009.26
2017-04-01T11:03:36.808Z,1009.34
2017-04-01T11:04:36.851Z,1009.32
2017-04-01T11:05:36.894Z,1009.3
2017-04-01T11:06:36.936Z,1009.3
2017-04-01T11:07:36.971Z,1009.3
2017-04-01T11:08:37.021Z,1009.24
2017-04-01T11:09:37.064Z,1009.26
2017-04-01T11:10:37.103Z,1009.21
2017-04-01T11:11:37.147Z,1009.18
2017-04-01T11:12:37.190Z,1009.15
2017-04-01T11:13:37.216Z,1009.15
2017-04-01T11:14:37.276Z,1009.14
2017-04-01T11:15:37.316Z,1009.13
2017-04-01T11:16:37.357Z,1009.18
2017-04-01T11:17:37.402Z,1009.2
2017-04-01T11:18:37.441Z,1009.17
2017-04-01T11:19:37.467Z,1009.14
2017-04-01T11:20:37.523Z,1009.11
2017-04-01T11:21:37.567Z,1009.11
2017-04-01T11:22:37.604Z,1009.1
2017-04-01T11:23:37.646Z,1009.09
2017-04-01T11:24:37.693Z,1009.06
2017-04-01T11:25:37.728Z,1009.11
2017-04-01T11:26:37.771Z,1009.06
2017-04-01T11:27:37.813Z,1009.07
2017-04-01T11:28:37.857Z,1009.08
2017-04-01T11:29:37.895Z,1009.06
2017-04-01T11:30:37.935Z,1009.03
2017-04-01T11:31:37.976Z,1009.06
2017-04-01T11:32:38.017Z,1009.03
2017-04-01T11:33:38.060Z,1009.09
2017-04-01T11:34:38.103Z,1009.06
2017-04-01T11:35:38.143Z,1009.04
2017-04-01T11:36:38.185Z,1009.04
2017-04-01T11:37:38.224Z,1009.01
2017-04-01T11:38:38.269Z,1009.03
2017-04-01T11:39:38.307Z,1009.03
2017-04-01T11:40:38.349Z,1009.05
2017-04-01T11:41:38.386Z,1009.04
2017-04-01T11:42:38.429Z,1009.05
2017-04-01T11:43:38.469Z,1009.03
2017-04-01T11:44:38.511Z,1009.03
2017-04-01T11:45:38.554Z,1008.99
2017-04-01T11:46:38.591Z,1008.96
2017-04-01T11:47:38.637Z,1008.91
2017-04-01T11:48:38.673Z,1008.9
2017-04-01T11:49:38.717Z,1008.98
2017-04-01T11:50:38.757Z,1008.94
2017-04-01T11:51:38.796Z,1008.95
2017-04-01T11:52:38.837Z,1008.96
2017-04-01T11:53:38.876Z,1008.89
2017-04-01T11:54:38.918Z,1008.88
2017-04-01T11:55:38.959Z,1008.84
2017-04-01T11:56:38.998Z,1008.9
2017-04-01T11:57:39.041Z,1008.87
2017-04-01T11:58:39.080Z,1008.83
2017-04-01T11:59:39.119Z,1008.86
2017-04-01T12:00:39.162Z,1008.85
2017-04-01T12:01:39.200Z,1008.8
2017-04-01T12:02:39.241Z,1008.79
2017-04-01T12:03:39.283Z,1008.84
2017-04-01T12:04:39.323Z,1008.78
2017-04-01T12:05:39.358Z,1008.76
2017-04-01T12:06:39.399Z,1008.79
2017-04-01T12:07:39.439Z,1008.79
2017-04-01T12:08:39.484Z,1008.81
2017-04-01T12:09:39.521Z,1008.82
2017-04-01T12:10:39.564Z,1008.77